Plato — 8PRX — position and weather

sailwx.info

Track history (hours):
 
Tides and Currents Weather Stations Pressure Air Temp Water Temp Dewpoint Dewpoint Depression Visibility Wind Speed Wind Dir Waves Ship Positions

Plato

Last reported at 2017-Mar-26 00:30 UTC. Time now 2017-Mar-26 01:26 UTC.
Position N 40°20' E 001°05'.

Length 89 m; draft 3.1 m.

Type: Cargo ship. MMSI: 314189000.

Date/timePositionNaut miles runAvg speedWind from/ knotsBaromVisibWave heightAir tempDewpointWater temp
2017-Mar-26 00:30N 40°20' E 001°05'6 6.1
2017-Mar-25 23:33N 40°23' E 001°11'5 5.4
2017-Mar-25 22:32N 40°27' E 001°17'5 5.0
2017-Mar-25 21:33N 40°30' E 001°22'6 5.8
2017-Mar-25 20:33N 40°33' E 001°28'7 6.7
2017-Mar-25 19:33N 40°37' E 001°36'6 6.4
2017-Mar-25 18:33N 40°41' E 001°42'6 6.0
2017-Mar-25 17:33N 40°45' E 001°48'6 6.0
2017-Mar-25 16:30N 40°49' E 001°54'6 5.8
2017-Mar-25 15:33N 40°53' E 001°60'5 4.7
2017-Mar-25 14:33N 40°56' E 002°05'5 4.7
2017-Mar-25 13:33N 40°59' E 002°09'6 6.1
2017-Mar-25 12:30N 41°03' E 002°16'  
2017-Mar-22 01:32N 41°01' E 002°39'9 8.8
2017-Mar-22 00:33N 40°54' E 002°32'9 9.0
2017-Mar-21 23:33N 40°46' E 002°25'9 8.9
2017-Mar-21 22:33N 40°39' E 002°18'9 8.8
2017-Mar-21 21:33N 40°32' E 002°11'9 8.8
2017-Mar-21 20:34N 40°25' E 002°05'9 9.2
2017-Mar-21 19:33N 40°17' E 001°57'10 9.8
2017-Mar-21 18:33N 40°09' E 001°50'9 9.2
2017-Mar-21 17:33N 40°02' E 001°43'9 9.2
2017-Mar-21 16:33N 39°55' E 001°36'9 9.3
2017-Mar-21 15:33N 39°47' E 001°29'30 9.3
2017-Mar-21 12:20N 39°23' E 001°06'122 9.3
2017-Mar-20 23:19N 37°43' W 000°23'26 9.3
2017-Mar-20 20:31N 37°23' W 000°44'224 9.3
2017-Mar-19 20:28N 36°00' W 005°04'1010.9
2017-Mar-19 19:34N 35°59' W 005°16'1110.8
2017-Mar-19 18:34N 35°57' W 005°29'  
Track history (hours):
 
Tides and Currents Weather Stations Pressure Air Temp Water Temp Dewpoint Dewpoint Depression Visibility Wind Speed Wind Dir Waves Ship Positions

Plato

Last reported at 2017-Mar-26 00:30 UTC. Time now 2017-Mar-26 01:26 UTC.
Position N 40°20' E 001°05'.

Length 89 m; draft 3.1 m.

Type: Cargo ship. MMSI: 314189000.

Date/timePositionNaut miles runAvg speedWind from/ knotsBaromVisibWave heightAir tempDewpointWater temp
2017-Mar-26 00:30N 40°20' E 001°05'6 6.1
2017-Mar-25 23:33N 40°23' E 001°11'5 5.4
2017-Mar-25 22:32N 40°27' E 001°17'5 5.0
2017-Mar-25 21:33N 40°30' E 001°22'6 5.8
2017-Mar-25 20:33N 40°33' E 001°28'7 6.7
2017-Mar-25 19:33N 40°37' E 001°36'6 6.4
2017-Mar-25 18:33N 40°41' E 001°42'6 6.0
2017-Mar-25 17:33N 40°45' E 001°48'6 6.0
2017-Mar-25 16:30N 40°49' E 001°54'6 5.8
2017-Mar-25 15:33N 40°53' E 001°60'5 4.7
2017-Mar-25 14:33N 40°56' E 002°05'5 4.7
2017-Mar-25 13:33N 40°59' E 002°09'6 6.1
2017-Mar-25 12:30N 41°03' E 002°16'  
2017-Mar-22 01:32N 41°01' E 002°39'9 8.8
2017-Mar-22 00:33N 40°54' E 002°32'9 9.0
2017-Mar-21 23:33N 40°46' E 002°25'9 8.9
2017-Mar-21 22:33N 40°39' E 002°18'9 8.8
2017-Mar-21 21:33N 40°32' E 002°11'9 8.8
2017-Mar-21 20:34N 40°25' E 002°05'9 9.2
2017-Mar-21 19:33N 40°17' E 001°57'10 9.8
2017-Mar-21 18:33N 40°09' E 001°50'9 9.2
2017-Mar-21 17:33N 40°02' E 001°43'9 9.2
2017-Mar-21 16:33N 39°55' E 001°36'9 9.3
2017-Mar-21 15:33N 39°47' E 001°29'30 9.3
2017-Mar-21 12:20N 39°23' E 001°06'122 9.3
2017-Mar-20 23:19N 37°43' W 000°23'26 9.3
2017-Mar-20 20:31N 37°23' W 000°44'224 9.3
2017-Mar-19 20:28N 36°00' W 005°04'1010.9
2017-Mar-19 19:34N 35°59' W 005°16'1110.8
2017-Mar-19 18:34N 35°57' W 005°29'  

Dump ship's entire track history